createdAt,value
2022-09-11T00:00:34.456Z,99.99
2022-09-11T00:01:34.406Z,99.99
2022-09-11T00:02:34.397Z,99.99
2022-09-11T00:03:34.338Z,99.99
2022-09-11T00:04:34.326Z,99.99
2022-09-11T00:05:34.278Z,99.99
2022-09-11T00:06:34.237Z,99.99
2022-09-11T00:07:34.197Z,99.99
2022-09-11T00:08:34.167Z,99.99
2022-09-11T00:09:34.139Z,99.99
2022-09-11T00:10:34.118Z,99.99
2022-09-11T00:11:34.077Z,99.99
2022-09-11T00:12:34.049Z,99.99
2022-09-11T00:13:34.018Z,99.99
2022-09-11T00:14:33.990Z,99.99
2022-09-11T00:15:33.972Z,99.99
2022-09-11T00:16:33.995Z,99.99
2022-09-11T00:17:33.900Z,99.99
2022-09-11T00:18:33.881Z,99.99
2022-09-11T00:19:33.861Z,99.99
2022-09-11T00:20:33.824Z,99.99
2022-09-11T00:21:33.779Z,99.99
2022-09-11T00:22:33.742Z,99.99
2022-09-11T00:23:33.717Z,99.99
2022-09-11T00:24:33.681Z,99.99
2022-09-11T00:25:33.663Z,99.99
2022-09-11T00:26:33.621Z,99.99
2022-09-11T00:27:33.574Z,99.99
2022-09-11T00:28:33.564Z,99.99
2022-09-11T00:29:33.522Z,99.99
2022-09-11T00:30:33.497Z,99.99
2022-09-11T00:31:33.478Z,99.99
2022-09-11T00:32:33.415Z,99.99
2022-09-11T00:33:33.378Z,99.99
2022-09-11T00:34:33.357Z,99.99
2022-09-11T00:35:33.327Z,99.99
2022-09-11T00:36:33.297Z,99.99
2022-09-11T00:37:33.268Z,99.99
2022-09-11T00:38:33.227Z,99.99
2022-09-11T00:39:33.197Z,99.99
2022-09-11T00:40:33.188Z,99.99
2022-09-11T00:41:33.130Z,99.99
2022-09-11T00:42:33.108Z,99.99
2022-09-11T00:43:33.127Z,99.99
2022-09-11T00:44:33.039Z,99.99
2022-09-11T00:45:33.037Z,99.99
2022-09-11T00:46:32.980Z,99.99
2022-09-11T00:47:32.922Z,99.99
2022-09-11T00:48:32.890Z,99.99
2022-09-11T00:49:32.860Z,99.99
2022-09-11T00:50:32.818Z,99.99
2022-09-11T00:51:32.792Z,99.99
2022-09-11T00:52:32.761Z,99.99
2022-09-11T00:53:32.723Z,99.99
2022-09-11T00:54:32.689Z,99.99
2022-09-11T00:55:32.656Z,99.99
2022-09-11T00:56:32.652Z,99.99
2022-09-11T00:57:32.593Z,99.99
2022-09-11T00:58:32.621Z,99.99
2022-09-11T00:59:32.549Z,99.99
2022-09-11T01:00:32.546Z,99.99
2022-09-11T01:01:32.517Z,99.99
2022-09-11T01:02:32.456Z,99.99
2022-09-11T01:03:32.432Z,99.99
2022-09-11T01:04:32.395Z,99.99
2022-09-11T01:05:32.376Z,99.99
2022-09-11T01:06:32.349Z,99.99
2022-09-11T01:07:32.307Z,99.99
2022-09-11T01:08:36.463Z,99.99
2022-09-11T01:09:33.249Z,99.99
2022-09-11T01:10:32.229Z,99.99
2022-09-11T01:11:32.205Z,99.99
2022-09-11T01:12:32.147Z,99.99
2022-09-11T01:13:32.159Z,99.99
2022-09-11T01:14:34.461Z,99.99
2022-09-11T01:15:32.068Z,99.99
2022-09-11T01:16:32.069Z,99.99
2022-09-11T01:17:32.036Z,99.99
2022-09-11T01:18:31.979Z,99.99
2022-09-11T01:19:31.949Z,99.99
2022-09-11T01:20:31.930Z,99.99
2022-09-11T01:21:34.541Z,99.99
2022-09-11T01:22:31.880Z,99.99
2022-09-11T01:23:31.838Z,99.99
2022-09-11T01:24:31.820Z,99.99
2022-09-11T01:25:31.791Z,99.99
2022-09-11T01:26:31.752Z,99.99
2022-09-11T01:27:31.744Z,99.99
2022-09-11T01:28:31.702Z,99.99
2022-09-11T01:29:31.672Z,99.99
2022-09-11T01:30:31.798Z,99.99
2022-09-11T01:31:31.631Z,99.99
2022-09-11T01:32:31.593Z,99.99
2022-09-11T01:33:31.563Z,99.99
2022-09-11T01:34:31.536Z,99.99
2022-09-11T01:35:31.493Z,99.99
2022-09-11T01:36:31.469Z,99.99
2022-09-11T01:37:31.417Z,99.99
2022-09-11T01:38:31.396Z,99.99
2022-09-11T01:39:31.356Z,99.99
2022-09-11T01:40:31.307Z,99.99
2022-09-11T01:41:31.276Z,99.99
2022-09-11T01:42:31.245Z,99.99
2022-09-11T01:43:31.225Z,99.99
2022-09-11T01:44:31.157Z,99.99
2022-09-11T01:45:31.205Z,99.99
2022-09-11T01:46:31.088Z,99.99
2022-09-11T01:47:31.058Z,99.99
2022-09-11T01:48:31.046Z,99.99
2022-09-11T01:49:31.009Z,99.99
2022-09-11T01:50:30.961Z,99.99
2022-09-11T01:51:30.950Z,99.99
2022-09-11T01:52:30.908Z,99.99
2022-09-11T01:53:30.881Z,99.99
2022-09-11T01:54:30.849Z,99.99
2022-09-11T01:55:30.809Z,99.99
2022-09-11T01:56:30.773Z,99.99
2022-09-11T01:57:30.751Z,99.99
2022-09-11T01:58:30.730Z,99.99
2022-09-11T01:59:30.711Z,99.99
2022-09-11T02:00:30.684Z,99.99
2022-09-11T02:01:30.630Z,99.99
2022-09-11T02:02:30.605Z,99.99
2022-09-11T02:03:30.582Z,99.99
2022-09-11T02:04:30.559Z,99.99
2022-09-11T02:05:30.533Z,99.99
2022-09-11T02:06:30.490Z,99.99
2022-09-11T02:07:30.466Z,99.99
2022-09-11T02:08:30.425Z,99.99
2022-09-11T02:09:30.426Z,99.99
2022-09-11T02:10:30.385Z,99.99
2022-09-11T02:11:30.356Z,99.99
2022-09-11T02:12:30.314Z,99.99
2022-09-11T02:13:30.285Z,99.99
2022-09-11T02:14:30.254Z,99.99
2022-09-11T02:15:30.226Z,99.99
2022-09-11T02:16:30.242Z,99.99
2022-09-11T02:17:30.158Z,99.99
2022-09-11T02:18:30.118Z,99.99
2022-09-11T02:19:30.097Z,99.99
2022-09-11T02:20:30.076Z,99.99
2022-09-11T02:21:30.027Z,99.99
2022-09-11T02:22:29.991Z,99.99
2022-09-11T02:23:29.970Z,99.99
2022-09-11T02:24:29.929Z,99.99
2022-09-11T02:25:29.918Z,99.99
2022-09-11T02:26:29.872Z,99.99
2022-09-11T02:27:29.852Z,99.99
2022-09-11T02:28:29.801Z,99.99
2022-09-11T02:29:29.765Z,99.99
2022-09-11T02:30:29.739Z,99.99
2022-09-11T02:31:29.765Z,99.99
2022-09-11T02:32:29.652Z,99.99
2022-09-11T02:33:29.642Z,99.99
2022-09-11T02:34:29.583Z,99.99
2022-09-11T02:35:29.572Z,99.99
2022-09-11T02:36:29.522Z,99.99
2022-09-11T02:37:29.492Z,99.99
2022-09-11T02:38:29.450Z,99.99
2022-09-11T02:39:29.417Z,99.99
2022-09-11T02:40:29.384Z,99.99
2022-09-11T02:41:29.366Z,99.99
2022-09-11T02:42:29.304Z,99.99
2022-09-11T02:43:29.294Z,99.99
2022-09-11T02:44:29.254Z,99.99
2022-09-11T02:45:29.301Z,99.99
2022-09-11T02:46:29.187Z,99.99
2022-09-11T02:47:29.147Z,99.99
2022-09-11T02:48:29.127Z,99.99
2022-09-11T02:49:29.087Z,99.99
2022-09-11T02:50:29.066Z,99.99
2022-09-11T02:51:29.050Z,99.99
2022-09-11T02:52:28.997Z,99.99
2022-09-11T02:53:28.969Z,99.99
2022-09-11T02:54:28.948Z,99.99
2022-09-11T02:55:28.919Z,99.99
2022-09-11T02:56:28.887Z,99.99
2022-09-11T02:57:28.867Z,99.99
2022-09-11T02:58:28.830Z,99.99
2022-09-11T02:59:28.801Z,99.99
2022-09-11T03:00:28.939Z,99.99
2022-09-11T03:01:28.740Z,99.99
2022-09-11T03:02:28.711Z,99.99
2022-09-11T03:03:28.672Z,99.99
2022-09-11T03:04:28.632Z,99.99
2022-09-11T03:05:28.614Z,99.99
2022-09-11T03:06:28.573Z,99.99
2022-09-11T03:07:28.564Z,99.99
2022-09-11T03:08:28.531Z,99.99
2022-09-11T03:09:28.505Z,99.99
2022-09-11T03:10:28.474Z,99.99
2022-09-11T03:11:28.446Z,99.99
2022-09-11T03:12:28.444Z,99.99
2022-09-11T03:13:28.405Z,99.99
2022-09-11T03:14:28.367Z,99.99
2022-09-11T03:15:28.343Z,99.99
2022-09-11T03:16:28.353Z,99.99
2022-09-11T03:17:28.288Z,99.99
2022-09-11T03:18:28.264Z,99.99
2022-09-11T03:19:28.217Z,99.99
2022-09-11T03:20:28.177Z,99.99
2022-09-11T03:21:28.164Z,99.99
2022-09-11T03:22:28.127Z,99.99
2022-09-11T03:23:28.118Z,99.99
2022-09-11T03:24:28.054Z,99.99
2022-09-11T03:25:28.028Z,99.99
2022-09-11T03:26:27.981Z,99.99
2022-09-11T03:27:27.969Z,99.99
2022-09-11T03:28:27.939Z,99.99
2022-09-11T03:29:27.899Z,99.99
2022-09-11T03:30:27.849Z,99.99
2022-09-11T03:31:27.850Z,99.99
2022-09-11T03:32:27.791Z,99.99
2022-09-11T03:33:27.761Z,99.99
2022-09-11T03:34:27.728Z,99.99
2022-09-11T03:35:27.701Z,99.99
2022-09-11T03:36:27.666Z,99.99
2022-09-11T03:37:27.642Z,99.99
2022-09-11T03:38:27.603Z,99.99
2022-09-11T03:39:27.585Z,99.99
2022-09-11T03:40:27.523Z,99.99
2022-09-11T03:41:27.501Z,99.99
2022-09-11T03:42:27.473Z,99.99
2022-09-11T03:43:27.453Z,99.99
2022-09-11T03:44:27.421Z,99.99
2022-09-11T03:45:27.420Z,99.99
2022-09-11T03:46:27.355Z,99.99
2022-09-11T03:47:27.333Z,99.99
2022-09-11T03:48:27.294Z,99.99
2022-09-11T03:49:27.275Z,99.99
2022-09-11T03:50:27.236Z,99.99
2022-09-11T03:51:27.206Z,99.99
2022-09-11T03:52:27.166Z,99.99
2022-09-11T03:53:27.146Z,99.99
2022-09-11T03:54:27.114Z,99.99
2022-09-11T03:55:27.085Z,99.99
2022-09-11T03:56:27.050Z,99.99
2022-09-11T03:57:27.020Z,99.99
2022-09-11T03:58:26.959Z,99.99
2022-09-11T03:59:26.929Z,99.99
2022-09-11T04:00:26.917Z,99.99
2022-09-11T04:01:26.879Z,99.99
2022-09-11T04:02:26.846Z,99.99
2022-09-11T04:03:26.802Z,99.99
2022-09-11T04:04:26.770Z,99.99
2022-09-11T04:05:26.771Z,99.99
2022-09-11T04:06:26.704Z,99.99
2022-09-11T04:07:26.681Z,99.99
2022-09-11T04:08:26.630Z,99.99
2022-09-11T04:09:26.612Z,99.99
2022-09-11T04:10:26.571Z,99.99
2022-09-11T04:11:26.532Z,99.99
2022-09-11T04:12:26.492Z,99.99
2022-09-11T04:13:26.463Z,99.99
2022-09-11T04:14:26.428Z,99.99
2022-09-11T04:15:26.403Z,99.99
2022-09-11T04:16:26.398Z,99.99
2022-09-11T04:17:26.324Z,99.99
2022-09-11T04:18:26.295Z,99.99
2022-09-11T04:19:26.256Z,99.99
2022-09-11T04:20:26.226Z,99.99
2022-09-11T04:21:26.195Z,99.99
2022-09-11T04:22:26.155Z,99.99
2022-09-11T04:23:26.135Z,99.99
2022-09-11T04:24:26.086Z,99.99
2022-09-11T04:25:26.086Z,99.99
2022-09-11T04:26:26.035Z,99.99
2022-09-11T04:27:26.020Z,99.99
2022-09-11T04:28:25.986Z,99.99
2022-09-11T04:29:25.957Z,99.99
2022-09-11T04:30:25.939Z,99.99
2022-09-11T04:31:25.948Z,99.99
2022-09-11T04:32:25.885Z,99.99
2022-09-11T04:33:25.849Z,99.99
2022-09-11T04:34:25.826Z,99.99
2022-09-11T04:35:25.810Z,99.99
2022-09-11T04:36:25.750Z,99.99
2022-09-11T04:37:25.720Z,99.99
2022-09-11T04:38:25.690Z,99.99
2022-09-11T04:39:25.670Z,99.99
2022-09-11T04:40:25.639Z,99.99
2022-09-11T04:41:25.618Z,99.99
2022-09-11T04:42:25.575Z,99.99
2022-09-11T04:43:25.532Z,99.99
2022-09-11T04:44:25.522Z,99.99
2022-09-11T04:45:25.545Z,99.99
2022-09-11T04:46:25.464Z,99.99
2022-09-11T04:47:25.432Z,99.99
2022-09-11T04:48:25.412Z,99.99
2022-09-11T04:49:25.393Z,99.99
2022-09-11T04:50:25.354Z,99.99
2022-09-11T04:51:25.324Z,99.99
2022-09-11T04:52:25.293Z,99.99
2022-09-11T04:53:25.275Z,99.99
2022-09-11T04:54:25.215Z,99.99
2022-09-11T04:55:25.196Z,99.99
2022-09-11T04:56:25.173Z,99.99
2022-09-11T04:57:25.136Z,99.99
2022-09-11T04:58:25.096Z,99.99
2022-09-11T04:59:25.064Z,99.99
2022-09-11T05:00:25.017Z,99.99
2022-09-11T05:01:25.006Z,99.99
2022-09-11T05:02:24.996Z,99.99
2022-09-11T05:03:24.928Z,99.99
2022-09-11T05:04:26.412Z,99.99
2022-09-11T05:05:24.880Z,99.99
2022-09-11T05:06:24.880Z,99.99
2022-09-11T05:07:24.827Z,99.99
2022-09-11T05:08:24.780Z,99.99
2022-09-11T05:09:24.761Z,99.99
2022-09-11T05:10:24.722Z,99.99
2022-09-11T05:11:24.691Z,99.99
2022-09-11T05:12:24.681Z,99.99
2022-09-11T05:13:24.631Z,99.99
2022-09-11T05:14:24.589Z,99.99
2022-09-11T05:15:24.569Z,99.99
2022-09-11T05:16:24.581Z,99.99
2022-09-11T05:17:24.503Z,99.99
2022-09-11T05:18:24.451Z,99.99
2022-09-11T05:19:24.424Z,99.99
2022-09-11T05:20:24.383Z,99.99
2022-09-11T05:21:24.343Z,99.99
2022-09-11T05:22:24.344Z,99.99
2022-09-11T05:23:24.282Z,99.99
2022-09-11T05:24:24.243Z,99.99
2022-09-11T05:25:24.204Z,99.99
2022-09-11T05:26:24.183Z,99.99
2022-09-11T05:27:24.146Z,99.99
2022-09-11T05:28:24.136Z,99.99
2022-09-11T05:29:24.076Z,99.99
2022-09-11T05:30:24.036Z,99.99
2022-09-11T05:31:24.031Z,99.99
2022-09-11T05:32:23.976Z,99.99
2022-09-11T05:33:23.957Z,99.99
2022-09-11T05:34:23.898Z,99.99
2022-09-11T05:35:23.868Z,99.99
2022-09-11T05:36:23.845Z,99.99
2022-09-11T05:37:23.798Z,99.99
2022-09-11T05:38:23.790Z,99.99
2022-09-11T05:39:23.720Z,99.99
2022-09-11T05:40:23.690Z,99.99
2022-09-11T05:41:23.657Z,99.99
2022-09-11T05:42:23.632Z,99.99
2022-09-11T05:43:23.622Z,99.99
2022-09-11T05:44:23.560Z,99.99
2022-09-11T05:45:23.531Z,99.99
2022-09-11T05:46:23.481Z,99.99
2022-09-11T05:47:23.450Z,99.99
2022-09-11T05:48:23.419Z,99.99
2022-09-11T05:49:23.376Z,99.99
2022-09-11T05:50:23.342Z,99.99
2022-09-11T05:51:23.302Z,99.99
2022-09-11T05:52:23.273Z,99.99
2022-09-11T05:53:23.234Z,99.99
2022-09-11T05:54:23.214Z,99.99
2022-09-11T05:55:23.173Z,99.99
2022-09-11T05:56:23.140Z,99.99
2022-09-11T05:57:23.114Z,99.99
2022-09-11T05:58:23.065Z,99.99
2022-09-11T05:59:23.027Z,99.99
2022-09-11T06:00:22.998Z,99.99
2022-09-11T06:01:23.008Z,99.99
2022-09-11T06:02:22.944Z,99.99
2022-09-11T06:03:22.867Z,99.99
2022-09-11T06:04:22.847Z,99.99
2022-09-11T06:05:22.777Z,99.99
2022-09-11T06:06:22.737Z,99.99
2022-09-11T06:07:22.699Z,99.99
2022-09-11T06:08:22.658Z,99.99
2022-09-11T06:09:22.620Z,99.99
2022-09-11T06:10:22.560Z,99.99
2022-09-11T06:11:22.520Z,99.99
2022-09-11T06:12:22.489Z,99.99
2022-09-11T06:13:22.452Z,99.99
2022-09-11T06:14:22.412Z,99.99
2022-09-11T06:15:45.092Z,99.99
2022-09-11T06:16:23.390Z,99.99
2022-09-11T06:17:22.272Z,99.99
2022-09-11T06:18:22.231Z,99.99
2022-09-11T06:19:22.181Z,99.99
2022-09-11T06:20:22.140Z,99.99
2022-09-11T06:21:22.083Z,99.99
2022-09-11T06:22:22.043Z,99.99
2022-09-11T06:23:21.980Z,99.99
2022-09-11T06:24:21.923Z,99.99
2022-09-11T06:25:21.884Z,99.99
2022-09-11T06:26:21.825Z,99.99
2022-09-11T06:27:21.780Z,99.99
2022-09-11T06:28:21.733Z,99.99
2022-09-11T06:29:21.680Z,99.99
2022-09-11T06:30:21.680Z,99.99
2022-09-11T06:31:21.575Z,99.99
2022-09-11T06:32:21.527Z,99.99
2022-09-11T06:33:21.466Z,99.68
2022-09-11T06:34:21.426Z,99.32
2022-09-11T06:35:21.378Z,99.32
2022-09-11T06:36:21.306Z,99.52
2022-09-11T06:37:21.249Z,99.63
2022-09-11T06:38:21.208Z,99.22
2022-09-11T06:39:21.150Z,99.67
2022-09-11T06:40:21.100Z,99.63
2022-09-11T06:41:21.039Z,99.67
2022-09-11T06:42:20.979Z,99.67
2022-09-11T06:43:20.921Z,99.27
2022-09-11T06:44:20.879Z,99.27
2022-09-11T06:45:20.830Z,99.88
2022-09-11T06:46:20.791Z,99.99
2022-09-11T06:47:20.716Z,99.99
2022-09-11T06:48:20.671Z,99.98
2022-09-11T06:49:20.611Z,99.98
2022-09-11T06:50:20.563Z,99.37
2022-09-11T06:51:20.513Z,99.37
2022-09-11T06:52:20.459Z,99.01
2022-09-11T06:53:20.401Z,98.91
2022-09-11T06:54:20.363Z,99.21
2022-09-11T06:55:20.294Z,99.52
2022-09-11T06:56:20.264Z,99.82
2022-09-11T06:57:20.204Z,99.92
2022-09-11T06:58:20.144Z,99.99
2022-09-11T06:59:20.086Z,99.99
2022-09-11T07:00:20.056Z,99.99
2022-09-11T07:01:20.079Z,99.99
2022-09-11T07:02:20.002Z,99.99
2022-09-11T07:03:19.906Z,99.99
2022-09-11T07:04:19.836Z,99.99
2022-09-11T07:05:19.811Z,99.99
2022-09-11T07:06:19.747Z,99.99
2022-09-11T07:07:19.707Z,99.99
2022-09-11T07:08:23.036Z,99.99
2022-09-11T07:09:20.602Z,99.99
2022-09-11T07:10:19.558Z,99.99
2022-09-11T07:11:19.500Z,99.88
2022-09-11T07:12:19.499Z,99.88
2022-09-11T07:13:19.418Z,99.99
2022-09-11T07:14:19.390Z,99.99
2022-09-11T07:15:19.330Z,99.99
2022-09-11T07:16:19.349Z,99.99
2022-09-11T07:17:19.219Z,99.99
2022-09-11T07:18:19.191Z,99.99
2022-09-11T07:19:19.124Z,99.99
2022-09-11T07:20:19.074Z,99.99
2022-09-11T07:21:19.029Z,99.99
2022-09-11T07:22:18.991Z,99.99
2022-09-11T07:23:18.934Z,99.99
2022-09-11T07:24:18.884Z,99.99
2022-09-11T07:25:18.831Z,99.99
2022-09-11T07:26:18.780Z,99.99
2022-09-11T07:27:18.715Z,99.99
2022-09-11T07:28:18.705Z,99.99
2022-09-11T07:29:18.625Z,99.98
2022-09-11T07:30:18.576Z,99.98
2022-09-11T07:31:20.837Z,99.98
2022-09-11T07:32:18.454Z,99.88
2022-09-11T07:33:18.386Z,99.98
2022-09-11T07:34:18.329Z,99.77
2022-09-11T07:35:18.267Z,99.16
2022-09-11T07:36:18.187Z,99.06
2022-09-11T07:37:18.133Z,99.16
2022-09-11T07:38:18.060Z,99.37
2022-09-11T07:39:17.999Z,98.45
2022-09-11T07:40:18.006Z,98.35
2022-09-11T07:41:17.870Z,98.96
2022-09-11T07:42:17.800Z,99.37
2022-09-11T07:43:17.728Z,99.27
2022-09-11T07:44:17.680Z,98.75
2022-09-11T07:45:22.085Z,98.86
2022-09-11T07:46:18.522Z,98.96
2022-09-11T07:47:17.461Z,99.27
2022-09-11T07:48:17.399Z,99.47
2022-09-11T07:49:17.338Z,99.37
2022-09-11T07:50:17.262Z,99.47
2022-09-11T07:51:17.182Z,99.37
2022-09-11T07:52:17.134Z,99.57
2022-09-11T07:53:17.051Z,99.37
2022-09-11T07:54:17.003Z,99.47
2022-09-11T07:55:16.924Z,99.67
2022-09-11T07:56:16.865Z,99.88
2022-09-11T07:57:16.774Z,99.98
2022-09-11T07:58:16.715Z,99.99
2022-09-11T07:59:16.645Z,99.99
2022-09-11T08:00:16.594Z,99.88
2022-09-11T08:01:16.564Z,99.63
2022-09-11T08:02:16.482Z,99.52
2022-09-11T08:03:16.357Z,99.83
2022-09-11T08:04:16.297Z,99.99
2022-09-11T08:05:16.257Z,99.99
2022-09-11T08:06:21.379Z,99.99
2022-09-11T08:07:17.086Z,99.99
2022-09-11T08:08:16.019Z,99.52
2022-09-11T08:09:15.948Z,99.32
2022-09-11T08:10:27.125Z,99.22
2022-09-11T08:11:16.811Z,99.38
2022-09-11T08:12:15.740Z,99.48
2022-09-11T08:13:15.651Z,99.58
2022-09-11T08:14:15.590Z,99.78
2022-09-11T08:15:15.530Z,99.88
2022-09-11T08:16:15.506Z,99.38
2022-09-11T08:17:15.380Z,99.27
2022-09-11T08:18:15.313Z,99.58
2022-09-11T08:19:15.244Z,99.78
2022-09-11T08:20:15.182Z,99.94
2022-09-11T08:21:15.091Z,99.99
2022-09-11T08:22:15.022Z,99.99
2022-09-11T08:23:14.945Z,99.99
2022-09-11T08:24:14.892Z,99.99
2022-09-11T08:25:14.823Z,99.99
2022-09-11T08:26:14.744Z,99.99
2022-09-11T08:27:14.672Z,99.94
2022-09-11T08:28:14.594Z,98.82
2022-09-11T08:29:14.525Z,98.41
2022-09-11T08:30:14.467Z,98.62
2022-09-11T08:31:14.421Z,98.52
2022-09-11T08:32:14.325Z,98.41
2022-09-11T08:33:14.255Z,98.62
2022-09-11T08:34:14.178Z,98.82
2022-09-11T08:35:14.086Z,98.82
2022-09-11T08:36:14.047Z,98.72
2022-09-11T08:37:13.956Z,98.62
2022-09-11T08:38:13.886Z,98.57
2022-09-11T08:39:13.819Z,98.11
2022-09-11T08:40:13.807Z,98.07
2022-09-11T08:41:13.678Z,97.86
2022-09-11T08:42:13.607Z,96.75
2022-09-11T08:43:13.529Z,96.84
2022-09-11T08:44:13.450Z,96.54
2022-09-11T08:45:13.381Z,97.05
2022-09-11T08:46:13.321Z,94.51
2022-09-11T08:47:13.254Z,95.63
2022-09-11T08:48:13.173Z,96.44
2022-09-11T08:49:13.093Z,97.35
2022-09-11T08:50:13.033Z,98.07
2022-09-11T08:51:12.952Z,97.86
2022-09-11T08:52:12.894Z,98.16
2022-09-11T08:53:12.955Z,98.47
2022-09-11T08:54:12.744Z,98.37
2022-09-11T08:55:12.663Z,98.73
2022-09-11T08:56:12.592Z,98.43
2022-09-11T08:57:12.525Z,97.25
2022-09-11T08:58:12.446Z,97.35
2022-09-11T08:59:12.392Z,97.96
2022-09-11T09:00:12.317Z,98.27
2022-09-11T09:01:12.253Z,97.76
2022-09-11T09:02:12.204Z,97.66
2022-09-11T09:03:12.095Z,97.51
2022-09-11T09:04:12.026Z,97.56
2022-09-11T09:05:11.947Z,97.25
2022-09-11T09:06:11.877Z,97.25
2022-09-11T09:07:11.821Z,97.15
2022-09-11T09:08:11.718Z,96.60
2022-09-11T09:09:11.639Z,97.15
2022-09-11T09:10:11.586Z,96.44
2022-09-11T09:11:11.496Z,96.54
2022-09-11T09:12:11.449Z,96.64
2022-09-11T09:13:11.339Z,95.32
2022-09-11T09:14:11.269Z,96.34
2022-09-11T09:15:11.192Z,97.05
2022-09-11T09:16:11.175Z,97.56
2022-09-11T09:17:11.084Z,97.11
2022-09-11T09:18:10.971Z,97.11
2022-09-11T09:19:10.872Z,97.41
2022-09-11T09:20:10.802Z,97.00
2022-09-11T09:21:10.713Z,95.99
2022-09-11T09:22:10.643Z,96.30
2022-09-11T09:23:10.581Z,95.79
2022-09-11T09:24:10.501Z,95.18
2022-09-11T09:25:10.405Z,95.07
2022-09-11T09:26:10.344Z,94.06
2022-09-11T09:27:10.308Z,95.89
2022-09-11T09:28:10.200Z,97.26
2022-09-11T09:29:10.114Z,96.55
2022-09-11T09:30:10.032Z,96.15
2022-09-11T09:31:09.994Z,95.23
2022-09-11T09:32:09.878Z,96.86
2022-09-11T09:33:13.133Z,97.67
2022-09-11T09:34:09.741Z,97.42
2022-09-11T09:35:09.697Z,94.53
2022-09-11T09:36:09.581Z,94.73
2022-09-11T09:37:09.542Z,95.64
2022-09-11T09:38:09.411Z,95.64
2022-09-11T09:39:09.347Z,96.45
2022-09-11T09:40:09.287Z,95.43
2022-09-11T09:41:09.159Z,95.54
2022-09-11T09:42:09.078Z,95.84
2022-09-11T09:43:09.009Z,96.35
2022-09-11T09:44:08.928Z,96.55
2022-09-11T09:45:08.830Z,96.80
2022-09-11T09:46:08.788Z,97.06
2022-09-11T09:47:08.644Z,96.35
2022-09-11T09:48:08.552Z,96.04
2022-09-11T09:49:08.472Z,96.66
2022-09-11T09:50:08.400Z,96.25
2022-09-11T09:51:08.294Z,93.21
2022-09-11T09:52:08.206Z,94.22
2022-09-11T09:53:08.133Z,94.73
2022-09-11T09:54:08.024Z,94.62
2022-09-11T09:55:07.944Z,94.18
2022-09-11T09:56:07.845Z,95.59
2022-09-11T09:57:07.778Z,95.39
2022-09-11T09:58:07.659Z,95.90
2022-09-11T09:59:07.600Z,96.71
2022-09-11T10:00:07.528Z,97.07
2022-09-11T10:01:07.466Z,96.87
2022-09-11T10:02:07.455Z,95.25
2022-09-11T10:03:07.259Z,95.55
2022-09-11T10:04:07.168Z,92.21
2022-09-11T10:05:07.088Z,94.13
2022-09-11T10:06:06.998Z,93.12
2022-09-11T10:07:06.920Z,93.42
2022-09-11T10:08:06.821Z,92.51
2022-09-11T10:09:06.729Z,93.57
2022-09-11T10:10:06.660Z,93.46
2022-09-11T10:11:06.560Z,94.34
2022-09-11T10:12:06.461Z,93.67
2022-09-11T10:13:18.891Z,93.67
2022-09-11T10:14:11.423Z,93.16
2022-09-11T10:15:07.231Z,92.25
2022-09-11T10:16:06.138Z,91.94
2022-09-11T10:17:06.043Z,92.86
2022-09-11T10:18:05.954Z,93.26
2022-09-11T10:19:05.887Z,94.18
2022-09-11T10:20:05.783Z,94.07
2022-09-11T10:21:08.468Z,94.27
2022-09-11T10:22:05.593Z,93.52
2022-09-11T10:23:05.505Z,94.03
2022-09-11T10:24:05.425Z,92.82
2022-09-11T10:25:05.336Z,92.51
2022-09-11T10:26:05.251Z,92.05
2022-09-11T10:27:05.157Z,92.86
2022-09-11T10:28:05.047Z,94.68
2022-09-11T10:29:04.977Z,94.68
2022-09-11T10:30:04.879Z,95.90
2022-09-11T10:31:04.833Z,96.56
2022-09-11T10:32:04.716Z,94.68
2022-09-11T10:33:04.618Z,94.58
2022-09-11T10:34:04.539Z,96.20
2022-09-11T10:35:04.459Z,96.30
2022-09-11T10:36:04.390Z,96.20
2022-09-11T10:37:04.297Z,95.70
2022-09-11T10:38:04.208Z,96.04
2022-09-11T10:39:04.128Z,96.45
2022-09-11T10:40:04.130Z,96.55
2022-09-11T10:41:03.967Z,96.86
2022-09-11T10:42:03.872Z,97.26
2022-09-11T10:43:03.803Z,97.77
2022-09-11T10:44:03.710Z,97.06
2022-09-11T10:45:03.632Z,96.39
2022-09-11T10:46:03.601Z,97.20
2022-09-11T10:47:03.478Z,97.81
2022-09-11T10:48:03.384Z,98.12
2022-09-11T10:49:03.305Z,98.02
2022-09-11T10:50:03.224Z,98.12
2022-09-11T10:51:03.147Z,98.32
2022-09-11T10:52:03.065Z,98.63
2022-09-11T10:53:02.984Z,98.12
2022-09-11T10:54:02.885Z,98.52
2022-09-11T10:55:02.805Z,97.51
2022-09-11T10:56:02.719Z,97.31
2022-09-11T10:57:02.664Z,97.71
2022-09-11T10:58:02.587Z,98.12
2022-09-11T10:59:02.485Z,98.07
2022-09-11T11:00:02.409Z,98.37
2022-09-11T11:01:02.401Z,97.76
2022-09-11T11:02:02.270Z,98.47
2022-09-11T11:03:02.238Z,98.97
2022-09-11T11:04:02.096Z,99.28
2022-09-11T11:05:02.009Z,99.44
2022-09-11T11:06:01.920Z,99.64
2022-09-11T11:07:01.840Z,99.69
2022-09-11T11:08:01.791Z,99.79
2022-09-11T11:09:01.710Z,99.64
2022-09-11T11:10:01.620Z,98.77
2022-09-11T11:11:01.554Z,98.88
2022-09-11T11:12:01.475Z,98.88
2022-09-11T11:13:01.413Z,98.37
2022-09-11T11:14:01.310Z,97.05
2022-09-11T11:15:01.232Z,97.15
2022-09-11T11:16:01.188Z,97.86
2022-09-11T11:17:01.084Z,98.16
2022-09-11T11:18:01.014Z,98.88
2022-09-11T11:19:00.923Z,99.44
2022-09-11T11:20:00.844Z,99.44
2022-09-11T11:21:00.775Z,99.44
2022-09-11T11:22:00.695Z,99.54
2022-09-11T11:23:00.643Z,98.83
2022-09-11T11:24:00.544Z,98.93
2022-09-11T11:25:00.469Z,99.04
2022-09-11T11:26:00.407Z,99.33
2022-09-11T11:27:00.336Z,99.60
2022-09-11T11:28:00.257Z,99.60
2022-09-11T11:29:00.168Z,99.49
2022-09-11T11:30:00.099Z,99.90
2022-09-11T11:31:00.165Z,99.99
2022-09-11T11:31:59.958Z,99.65
2022-09-11T11:32:59.879Z,98.74
2022-09-11T11:33:59.799Z,98.74
2022-09-11T11:34:59.731Z,98.84
2022-09-11T11:35:59.641Z,99.04
2022-09-11T11:36:59.576Z,99.24
2022-09-11T11:37:59.488Z,99.24
2022-09-11T11:38:59.421Z,98.54
2022-09-11T11:39:59.363Z,97.22
2022-09-11T11:40:59.278Z,96.75
2022-09-11T11:41:59.193Z,96.71
2022-09-11T11:42:59.123Z,97.11
2022-09-11T11:43:59.060Z,97.83
2022-09-11T11:44:58.963Z,98.39
2022-09-11T11:45:58.951Z,99.30
2022-09-11T11:46:58.823Z,99.55
2022-09-11T11:47:58.734Z,99.15
2022-09-11T11:48:58.664Z,97.33
2022-09-11T11:49:58.555Z,94.49
2022-09-11T11:50:58.477Z,96.22
2022-09-11T11:51:58.396Z,95.10
2022-09-11T11:52:58.323Z,94.19
2022-09-11T11:53:58.237Z,94.79
2022-09-11T11:54:58.167Z,95.81
2022-09-11T11:55:58.079Z,94.29
2022-09-11T11:56:57.987Z,93.99
2022-09-11T11:57:57.900Z,93.99
2022-09-11T11:58:57.828Z,94.59
2022-09-11T11:59:57.738Z,95.30
2022-09-11T12:00:57.659Z,96.62
2022-09-11T12:01:57.616Z,96.01
2022-09-11T12:02:57.490Z,94.59
2022-09-11T12:03:57.491Z,93.38
2022-09-11T12:04:57.368Z,93.18
2022-09-11T12:05:57.241Z,94.09
2022-09-11T12:06:57.160Z,95.50
2022-09-11T12:07:57.083Z,96.92
2022-09-11T12:08:56.994Z,96.22
2022-09-11T12:09:56.912Z,94.84
2022-09-11T12:10:56.851Z,93.32
2022-09-11T12:11:56.751Z,94.43
2022-09-11T12:12:56.673Z,95.55
2022-09-11T12:13:56.606Z,95.14
2022-09-11T12:14:56.523Z,95.25
2022-09-11T12:15:56.483Z,94.90
2022-09-11T12:16:56.362Z,93.93
2022-09-11T12:17:56.274Z,94.29
2022-09-11T12:18:56.203Z,95.50
2022-09-11T12:19:56.095Z,93.22
2022-09-11T12:20:56.039Z,94.90
2022-09-11T12:21:55.955Z,94.49
2022-09-11T12:22:55.876Z,95.14
2022-09-11T12:23:55.788Z,95.20
2022-09-11T12:24:55.717Z,94.23
2022-09-11T12:25:55.625Z,95.10
2022-09-11T12:26:55.558Z,95.45
2022-09-11T12:27:55.459Z,94.64
2022-09-11T12:28:55.388Z,92.82
2022-09-11T12:29:55.290Z,94.54
2022-09-11T12:30:55.297Z,94.34
2022-09-11T12:31:55.148Z,95.25
2022-09-11T12:32:55.057Z,94.84
2022-09-11T12:33:54.980Z,95.25
2022-09-11T12:34:54.926Z,95.75
2022-09-11T12:35:54.807Z,95.35
2022-09-11T12:36:54.733Z,94.94
2022-09-11T12:37:54.651Z,95.65
2022-09-11T12:38:54.570Z,95.35
2022-09-11T12:39:54.508Z,94.84
2022-09-11T12:40:54.413Z,95.19
2022-09-11T12:41:54.320Z,95.25
2022-09-11T12:42:54.245Z,95.95
2022-09-11T12:43:54.154Z,96.77
2022-09-11T12:44:54.089Z,96.15
2022-09-11T12:45:54.024Z,96.56
2022-09-11T12:46:53.931Z,97.63
2022-09-11T12:47:53.865Z,98.24
2022-09-11T12:49:17.821Z,97.33
2022-09-11T12:49:54.668Z,95.30
2022-09-11T12:50:53.587Z,95.20
2022-09-11T12:51:53.501Z,93.78